createdAt,value
2022-12-04T00:01:36.741Z,19.80
2022-12-04T00:04:03.215Z,19.80
2022-12-04T00:06:29.674Z,19.80
2022-12-04T00:08:56.094Z,19.70
2022-12-04T00:11:22.530Z,19.80
2022-12-04T00:13:48.960Z,19.80
2022-12-04T00:16:15.452Z,19.90
2022-12-04T00:18:41.946Z,20.00
2022-12-04T00:21:08.424Z,19.80
2022-12-04T00:23:35.032Z,19.80
2022-12-04T00:26:01.471Z,19.70
2022-12-04T00:28:27.904Z,19.80
2022-12-04T00:30:54.358Z,19.80
2022-12-04T00:33:20.794Z,19.80
2022-12-04T00:35:47.220Z,19.20
2022-12-04T00:38:13.666Z,19.80
2022-12-04T00:40:40.130Z,19.90
2022-12-04T00:43:06.621Z,19.80
2022-12-04T00:45:33.086Z,19.80
2022-12-04T00:47:59.609Z,19.80
2022-12-04T00:50:26.069Z,19.80
2022-12-04T00:52:52.567Z,19.80
2022-12-04T00:55:19.042Z,19.80
2022-12-04T00:57:45.566Z,19.80
2022-12-04T01:00:12.043Z,19.70
2022-12-04T01:02:38.590Z,19.70
2022-12-04T01:05:05.054Z,19.70
2022-12-04T01:07:31.609Z,19.70
2022-12-04T01:09:58.199Z,19.70
2022-12-04T01:12:24.708Z,19.70
2022-12-04T01:14:51.201Z,19.80
2022-12-04T01:17:17.674Z,19.80
2022-12-04T01:19:44.161Z,19.90
2022-12-04T01:22:10.678Z,19.70
2022-12-04T01:24:37.161Z,19.80
2022-12-04T01:27:03.587Z,19.70
2022-12-04T01:29:30.044Z,19.70
2022-12-04T01:31:56.540Z,19.70
2022-12-04T01:34:23.047Z,19.70
2022-12-04T01:36:49.493Z,19.70
2022-12-04T01:39:15.913Z,19.80
2022-12-04T01:41:42.373Z,19.70
2022-12-04T01:44:08.790Z,19.70
2022-12-04T01:46:35.217Z,19.90
2022-12-04T01:49:01.672Z,19.70
2022-12-04T01:51:28.098Z,19.70
2022-12-04T01:56:21.530Z,19.70
2022-12-04T01:58:48.386Z,19.60
2022-12-04T02:01:14.886Z,19.60
2022-12-04T02:03:41.448Z,19.70
2022-12-04T02:06:07.917Z,19.60
2022-12-04T02:08:34.418Z,19.60
2022-12-04T02:11:00.891Z,19.60
2022-12-04T02:13:27.365Z,19.90
2022-12-04T02:15:53.832Z,19.50
2022-12-04T02:18:20.260Z,19.60
2022-12-04T02:20:46.704Z,19.80
2022-12-04T02:23:13.176Z,19.60
2022-12-04T02:25:39.622Z,18.90
2022-12-04T02:28:06.042Z,19.70
2022-12-04T02:30:32.601Z,19.60
2022-12-04T02:32:59.138Z,19.70
2022-12-04T02:35:25.615Z,19.70
2022-12-04T02:37:52.051Z,19.70
2022-12-04T02:40:18.602Z,19.70
2022-12-04T02:42:45.062Z,19.70
2022-12-04T02:45:11.481Z,19.70
2022-12-04T02:47:37.943Z,19.70
2022-12-04T02:50:04.405Z,19.70
2022-12-04T02:52:30.902Z,19.70
2022-12-04T02:54:57.371Z,19.70
2022-12-04T02:57:23.807Z,19.70
2022-12-04T02:59:50.223Z,19.70
2022-12-04T03:02:16.714Z,19.70
2022-12-04T03:04:43.178Z,19.60
2022-12-04T03:07:09.634Z,19.70
2022-12-04T03:09:36.082Z,19.70
2022-12-04T03:12:02.551Z,19.70
2022-12-04T03:14:28.979Z,19.70
2022-12-04T03:16:55.573Z,19.70
2022-12-04T03:19:22.046Z,19.70
2022-12-04T03:21:48.461Z,19.70
2022-12-04T03:24:15.042Z,19.70
2022-12-04T03:26:41.520Z,19.70
2022-12-04T03:29:07.975Z,19.70
2022-12-04T03:31:34.402Z,19.70
2022-12-04T03:34:00.834Z,19.70
2022-12-04T03:36:27.262Z,19.70
2022-12-04T03:38:53.745Z,19.60
2022-12-04T03:41:20.162Z,19.70
2022-12-04T03:43:46.901Z,19.70
2022-12-04T03:46:13.391Z,19.70
2022-12-04T03:48:39.897Z,19.70
2022-12-04T03:51:06.317Z,19.80
2022-12-04T03:53:32.797Z,19.70
2022-12-04T03:55:59.263Z,19.70
2022-12-04T03:58:25.773Z,19.70
2022-12-04T04:00:52.239Z,19.70
2022-12-04T04:03:18.700Z,19.70
2022-12-04T04:05:45.169Z,19.70
2022-12-04T04:08:11.708Z,19.70
2022-12-04T04:10:38.270Z,19.70
2022-12-04T04:13:04.695Z,19.70
2022-12-04T04:15:31.204Z,19.70
2022-12-04T04:17:57.662Z,19.70
2022-12-04T04:20:24.120Z,19.70
2022-12-04T04:22:55.815Z,19.70
2022-12-04T04:25:22.667Z,19.80
2022-12-04T04:27:49.130Z,19.70
2022-12-04T04:30:15.614Z,19.70
2022-12-04T04:32:42.084Z,19.70
2022-12-04T04:35:08.554Z,19.70
2022-12-04T04:37:35.062Z,19.70
2022-12-04T04:40:01.482Z,19.70
2022-12-04T04:42:27.956Z,19.70
2022-12-04T04:44:54.419Z,19.70
2022-12-04T04:47:20.884Z,19.70
2022-12-04T04:49:47.466Z,19.70
2022-12-04T04:52:14.176Z,19.90
2022-12-04T04:54:40.607Z,19.60
2022-12-04T04:57:07.112Z,19.60
2022-12-04T04:59:33.532Z,19.70
2022-12-04T05:02:00.100Z,19.60
2022-12-04T05:04:26.626Z,19.60
2022-12-04T05:06:53.045Z,19.60
2022-12-04T05:09:19.522Z,19.60
2022-12-04T05:11:45.952Z,19.50
2022-12-04T05:14:12.424Z,19.50
2022-12-04T05:16:38.970Z,19.60
2022-12-04T05:19:05.461Z,19.60
2022-12-04T05:21:31.892Z,19.60
2022-12-04T05:23:58.361Z,19.60
2022-12-04T05:26:24.810Z,19.60
2022-12-04T05:28:51.268Z,19.70
2022-12-04T05:31:17.756Z,19.70
2022-12-04T05:33:44.460Z,19.60
2022-12-04T05:36:11.197Z,19.60
2022-12-04T05:38:37.639Z,19.60
2022-12-04T05:41:04.112Z,19.90
2022-12-04T05:43:30.554Z,19.60
2022-12-04T05:45:57.008Z,19.70
2022-12-04T05:48:23.431Z,19.60
2022-12-04T05:50:49.867Z,19.60
2022-12-04T05:53:16.321Z,19.60
2022-12-04T05:55:42.770Z,19.60
2022-12-04T05:58:09.229Z,19.50
2022-12-04T06:00:35.670Z,19.80
2022-12-04T06:03:02.146Z,19.60
2022-12-04T06:05:28.645Z,19.50
2022-12-04T06:07:55.148Z,19.60
2022-12-04T06:10:21.584Z,19.70
2022-12-04T06:12:47.998Z,19.60
2022-12-04T06:15:14.468Z,19.40
2022-12-04T06:17:40.927Z,19.60
2022-12-04T06:20:11.440Z,19.60
2022-12-04T06:22:38.461Z,19.70
2022-12-04T06:25:04.878Z,19.60
2022-12-04T06:27:31.362Z,19.60
2022-12-04T06:29:58.171Z,19.80
2022-12-04T06:32:24.884Z,19.70
2022-12-04T06:34:51.347Z,19.60
2022-12-04T06:37:18.362Z,19.60
2022-12-04T06:39:45.555Z,19.60
2022-12-04T06:42:14.082Z,19.40
2022-12-04T06:44:40.514Z,19.70
2022-12-04T06:47:06.992Z,19.70
2022-12-04T06:49:33.430Z,19.60
2022-12-04T06:51:59.917Z,19.60
2022-12-04T06:54:26.341Z,19.70
2022-12-04T06:56:52.804Z,19.60
2022-12-04T06:59:19.270Z,19.40
2022-12-04T07:01:45.772Z,19.60
2022-12-04T07:04:12.196Z,19.70
2022-12-04T07:06:38.683Z,19.70
2022-12-04T07:09:05.102Z,19.70
2022-12-04T07:11:31.617Z,19.90
2022-12-04T07:13:58.077Z,19.80
2022-12-04T07:16:24.618Z,19.90
2022-12-04T07:18:51.098Z,19.90
2022-12-04T07:21:17.513Z,19.80
2022-12-04T07:23:43.976Z,19.80
2022-12-04T07:26:10.405Z,19.60
2022-12-04T07:28:36.854Z,19.80
2022-12-04T07:31:03.310Z,19.80
2022-12-04T07:33:29.804Z,19.80
2022-12-04T07:35:56.280Z,19.70
2022-12-04T07:38:22.713Z,19.80
2022-12-04T07:40:49.139Z,19.80
2022-12-04T07:43:15.590Z,19.30
2022-12-04T07:45:42.073Z,19.60
2022-12-04T07:48:08.548Z,19.80
2022-12-04T07:50:35.015Z,19.70
2022-12-04T07:53:01.441Z,19.70
2022-12-04T07:55:27.885Z,19.70
2022-12-04T07:57:54.298Z,19.60
2022-12-04T08:00:20.767Z,20.00
2022-12-04T08:02:47.246Z,19.80
2022-12-04T08:05:13.671Z,19.90
2022-12-04T08:07:40.152Z,19.70
2022-12-04T08:10:06.612Z,19.70
2022-12-04T08:12:33.070Z,20.20
2022-12-04T08:14:59.544Z,19.70
2022-12-04T08:17:26.035Z,19.70
2022-12-04T08:19:52.586Z,19.80
2022-12-04T08:22:23.452Z,19.80
2022-12-04T08:24:51.574Z,19.80
2022-12-04T08:27:18.031Z,19.80
2022-12-04T08:29:44.453Z,19.80
2022-12-04T08:32:10.880Z,19.80
2022-12-04T08:34:37.347Z,19.90
2022-12-04T08:37:03.809Z,19.90
2022-12-04T08:39:30.233Z,19.90
2022-12-04T08:44:24.033Z,20.00
2022-12-04T08:46:50.558Z,20.00
2022-12-04T08:49:17.046Z,20.10
2022-12-04T08:51:43.467Z,20.20
2022-12-04T08:54:09.950Z,20.10
2022-12-04T08:56:36.375Z,20.90
2022-12-04T08:59:02.865Z,20.10
2022-12-04T09:01:29.409Z,20.10
2022-12-04T09:03:55.993Z,20.30
2022-12-04T09:06:22.484Z,20.10
2022-12-04T09:08:48.956Z,20.10
2022-12-04T09:11:15.427Z,20.10
2022-12-04T09:13:41.908Z,20.00
2022-12-04T09:18:35.469Z,20.10
2022-12-04T09:21:01.945Z,20.10
2022-12-04T09:23:28.437Z,20.10
2022-12-04T09:25:54.878Z,19.60
2022-12-04T09:28:21.345Z,20.10
2022-12-04T09:30:47.836Z,20.00
2022-12-04T09:33:14.332Z,20.00
2022-12-04T09:35:40.773Z,20.00
2022-12-04T09:38:07.239Z,20.10
2022-12-04T09:40:37.659Z,20.00
2022-12-04T09:43:04.721Z,20.10
2022-12-04T09:45:31.192Z,20.00
2022-12-04T09:47:57.668Z,19.90
2022-12-04T09:50:24.097Z,19.90
2022-12-04T09:52:50.527Z,19.90
2022-12-04T09:55:16.988Z,19.80
2022-12-04T09:57:43.454Z,19.70
2022-12-04T10:00:09.918Z,19.70
2022-12-04T10:02:36.512Z,20.00
2022-12-04T10:05:03.098Z,19.90
2022-12-04T10:07:29.639Z,20.00
2022-12-04T10:09:56.450Z,19.90
2022-12-04T10:12:23.163Z,19.90
2022-12-04T10:14:49.601Z,19.90
2022-12-04T10:17:16.023Z,19.90
2022-12-04T10:19:42.449Z,19.90
2022-12-04T10:22:08.872Z,19.90
2022-12-04T10:24:35.361Z,19.90
2022-12-04T10:27:01.792Z,19.70
2022-12-04T10:29:28.214Z,19.70
2022-12-04T10:31:54.646Z,19.70
2022-12-04T10:34:21.064Z,19.80
2022-12-04T10:36:47.503Z,19.70
2022-12-04T10:39:13.928Z,19.70
2022-12-04T10:41:40.413Z,19.70
2022-12-04T10:44:06.887Z,19.70
2022-12-04T10:46:33.444Z,19.70
2022-12-04T10:49:00.117Z,19.70
2022-12-04T10:51:26.566Z,19.80
2022-12-04T10:53:53.006Z,19.80
2022-12-04T10:56:19.468Z,20.10
2022-12-04T10:58:45.961Z,19.90
2022-12-04T11:01:12.428Z,19.80
2022-12-04T11:03:38.907Z,20.00
2022-12-04T11:06:05.434Z,20.00
2022-12-04T11:08:31.919Z,20.10
2022-12-04T11:10:58.429Z,20.10
2022-12-04T11:13:24.879Z,20.00
2022-12-04T11:15:51.413Z,20.20
2022-12-04T11:18:17.901Z,19.80
2022-12-04T11:20:47.048Z,20.10
2022-12-04T11:23:13.633Z,20.10
2022-12-04T11:25:40.132Z,20.20
2022-12-04T11:28:06.614Z,20.10
2022-12-04T11:30:33.069Z,20.10
2022-12-04T11:32:59.502Z,20.10
2022-12-04T11:35:26.000Z,20.00
2022-12-04T11:37:52.478Z,20.10
2022-12-04T11:40:18.994Z,20.10
2022-12-04T11:42:45.457Z,20.00
2022-12-04T11:45:11.967Z,20.00
2022-12-04T11:47:38.445Z,19.90
2022-12-04T11:50:04.996Z,20.00
2022-12-04T11:52:31.440Z,19.90
2022-12-04T11:54:57.890Z,19.90
2022-12-04T11:57:24.326Z,19.90
2022-12-04T11:59:50.800Z,19.80
2022-12-04T12:02:17.358Z,19.90
2022-12-04T12:04:43.947Z,19.80
2022-12-04T12:07:10.455Z,19.70
2022-12-04T12:09:36.902Z,19.70
2022-12-04T12:12:03.334Z,19.40
2022-12-04T12:14:29.802Z,19.70
2022-12-04T12:16:56.236Z,19.80
2022-12-04T12:19:22.740Z,19.90
2022-12-04T12:21:49.208Z,19.80
2022-12-04T12:24:15.681Z,19.70
2022-12-04T12:26:42.119Z,19.80
2022-12-04T12:29:08.593Z,19.80
2022-12-04T12:31:35.067Z,19.90
2022-12-04T12:34:01.557Z,19.80
2022-12-04T12:36:27.997Z,19.90
2022-12-04T12:38:54.484Z,19.90
2022-12-04T12:41:20.969Z,19.90
2022-12-04T12:43:47.492Z,19.90
2022-12-04T12:46:14.016Z,19.90
2022-12-04T12:48:40.493Z,19.90
2022-12-04T12:51:29.272Z,19.90
2022-12-04T12:53:53.389Z,19.90
2022-12-04T12:56:19.873Z,19.50
2022-12-04T12:58:46.337Z,20.10
2022-12-04T13:01:12.861Z,20.00
2022-12-04T13:03:39.429Z,20.00
2022-12-04T13:06:05.856Z,20.00
2022-12-04T13:08:32.272Z,20.00
2022-12-04T13:10:58.854Z,20.00
2022-12-04T13:13:25.324Z,19.90
2022-12-04T13:15:51.803Z,20.00
2022-12-04T13:18:18.246Z,20.00
2022-12-04T13:20:44.685Z,19.90
2022-12-04T13:23:11.127Z,20.00
2022-12-04T13:25:37.611Z,20.00
2022-12-04T13:28:04.109Z,20.00
2022-12-04T13:30:30.534Z,19.90
2022-12-04T13:32:56.958Z,20.10
2022-12-04T13:35:23.403Z,20.10
2022-12-04T13:37:49.902Z,20.10
2022-12-04T13:40:16.382Z,20.00
2022-12-04T13:42:42.829Z,19.70
2022-12-04T13:45:09.332Z,20.00
2022-12-04T13:47:35.795Z,20.00
2022-12-04T13:52:32.930Z,20.00
2022-12-04T13:54:59.601Z,20.00
2022-12-04T13:57:26.102Z,20.10
2022-12-04T13:59:52.556Z,20.10
2022-12-04T14:02:19.076Z,20.10
2022-12-04T14:04:45.566Z,20.00
2022-12-04T14:07:12.028Z,20.00
2022-12-04T14:09:38.473Z,20.00
2022-12-04T14:12:04.978Z,20.00
2022-12-04T14:14:31.407Z,20.00
2022-12-04T14:16:57.957Z,20.00
2022-12-04T14:19:24.475Z,20.00
2022-12-04T14:21:50.897Z,20.00
2022-12-04T14:24:17.367Z,19.90
2022-12-04T14:27:10.027Z,20.00
2022-12-04T14:29:30.313Z,20.00
2022-12-04T14:31:56.761Z,20.00
2022-12-04T14:34:23.177Z,19.80
2022-12-04T14:36:49.598Z,20.00
2022-12-04T14:39:16.018Z,20.10
2022-12-04T14:41:42.433Z,20.00
2022-12-04T14:44:08.847Z,20.00
2022-12-04T14:46:35.364Z,20.00
2022-12-04T14:49:01.889Z,20.00
2022-12-04T14:51:28.330Z,20.00
2022-12-04T14:53:54.820Z,20.00
2022-12-04T14:56:21.286Z,19.90
2022-12-04T14:58:47.777Z,19.90
2022-12-04T15:01:14.249Z,19.90
2022-12-04T15:03:40.765Z,19.80
2022-12-04T15:06:07.248Z,19.90
2022-12-04T15:08:33.733Z,19.80
2022-12-04T15:11:00.202Z,19.80
2022-12-04T15:13:26.636Z,19.80
2022-12-04T15:15:53.127Z,19.70
2022-12-04T15:18:19.587Z,19.90
2022-12-04T15:20:46.012Z,19.80
2022-12-04T15:23:12.473Z,19.80
2022-12-04T15:25:38.910Z,19.80
2022-12-04T15:28:05.379Z,19.80
2022-12-04T15:30:31.913Z,19.90
2022-12-04T15:32:58.381Z,19.90
2022-12-04T15:35:24.860Z,19.90
2022-12-04T15:37:51.377Z,19.90
2022-12-04T15:40:17.850Z,19.90
2022-12-04T15:42:44.329Z,19.90
2022-12-04T15:45:10.805Z,20.10
2022-12-04T15:47:37.255Z,19.90
2022-12-04T15:50:03.675Z,19.80
2022-12-04T15:52:30.141Z,19.80
2022-12-04T15:54:56.874Z,19.90
2022-12-04T15:57:23.486Z,19.90
2022-12-04T15:59:49.948Z,19.80
2022-12-04T16:02:16.423Z,19.80
2022-12-04T16:04:45.579Z,19.90
2022-12-04T16:07:12.220Z,19.90
2022-12-04T16:09:38.648Z,19.90
2022-12-04T16:12:05.117Z,19.90
2022-12-04T16:14:31.552Z,19.90
2022-12-04T16:17:02.571Z,19.70
2022-12-04T16:19:32.249Z,19.80
2022-12-04T16:21:58.683Z,19.80
2022-12-04T16:24:25.198Z,19.70
2022-12-04T16:26:51.666Z,19.80
2022-12-04T16:29:18.135Z,19.80
2022-12-04T16:31:44.671Z,19.80
2022-12-04T16:34:11.141Z,19.70
2022-12-04T16:36:37.583Z,19.80
2022-12-04T16:39:04.042Z,19.80
2022-12-04T16:41:30.535Z,19.80
2022-12-04T16:43:57.002Z,19.80
2022-12-04T16:46:23.522Z,19.70
2022-12-04T16:48:50.012Z,19.70
2022-12-04T16:51:16.461Z,19.70
2022-12-04T16:53:42.909Z,19.70
2022-12-04T16:56:09.363Z,19.80
2022-12-04T16:58:35.842Z,19.80
2022-12-04T17:01:02.322Z,19.90
2022-12-04T17:03:28.778Z,19.80
2022-12-04T17:05:55.248Z,19.90
2022-12-04T17:08:21.753Z,19.80
2022-12-04T17:10:48.274Z,19.80
2022-12-04T17:13:14.750Z,19.90
2022-12-04T17:15:41.179Z,19.80
2022-12-04T17:18:12.902Z,19.90
2022-12-04T17:20:41.589Z,19.90
2022-12-04T17:23:08.051Z,19.90
2022-12-04T17:25:34.480Z,19.90
2022-12-04T17:28:01.008Z,19.90
2022-12-04T17:30:31.368Z,19.90
2022-12-04T17:33:00.775Z,19.90
2022-12-04T17:35:27.242Z,19.90
2022-12-04T17:37:53.705Z,19.90
2022-12-04T17:40:20.265Z,20.00
2022-12-04T17:42:46.746Z,19.90
2022-12-04T17:45:13.214Z,19.90
2022-12-04T17:47:39.733Z,19.90
2022-12-04T17:50:06.182Z,19.90
2022-12-04T17:52:32.667Z,19.90
2022-12-04T17:54:59.300Z,19.90
2022-12-04T17:57:25.957Z,19.90
2022-12-04T17:59:52.455Z,20.20
2022-12-04T18:02:18.887Z,19.80
2022-12-04T18:04:45.394Z,19.90
2022-12-04T18:07:11.872Z,19.90
2022-12-04T18:09:38.333Z,19.80
2022-12-04T18:12:04.809Z,19.90
2022-12-04T18:14:31.298Z,19.90
2022-12-04T18:16:57.755Z,19.90
2022-12-04T18:19:24.249Z,19.90
2022-12-04T18:21:50.671Z,19.90
2022-12-04T18:24:17.157Z,19.90
2022-12-04T18:26:43.622Z,19.90
2022-12-04T18:29:10.093Z,19.90
2022-12-04T18:31:36.630Z,20.10
2022-12-04T18:34:03.146Z,19.90
2022-12-04T18:36:29.649Z,19.80
2022-12-04T18:38:56.137Z,19.80
2022-12-04T18:41:22.667Z,19.80
2022-12-04T18:43:49.136Z,19.80
2022-12-04T18:46:15.606Z,19.80
2022-12-04T18:48:42.100Z,19.80
2022-12-04T18:51:08.617Z,19.70
2022-12-04T18:53:35.059Z,19.70
2022-12-04T18:56:01.557Z,19.70
2022-12-04T18:58:28.060Z,19.70
2022-12-04T19:00:54.637Z,19.70
2022-12-04T19:03:21.145Z,19.60
2022-12-04T19:05:47.713Z,19.60
2022-12-04T19:08:14.275Z,19.50
2022-12-04T19:10:40.785Z,19.60
2022-12-04T19:13:07.241Z,19.60
2022-12-04T19:15:33.745Z,19.60
2022-12-04T19:18:00.185Z,19.60
2022-12-04T19:20:26.641Z,19.60
2022-12-04T19:22:53.108Z,19.60
2022-12-04T19:25:19.606Z,19.80
2022-12-04T19:27:46.040Z,19.60
2022-12-04T19:30:12.485Z,19.70
2022-12-04T19:32:38.911Z,19.70
2022-12-04T19:35:05.335Z,19.70
2022-12-04T19:37:31.809Z,19.70
2022-12-04T19:39:58.504Z,19.80
2022-12-04T19:42:25.245Z,19.70
2022-12-04T19:44:51.687Z,19.60
2022-12-04T19:47:18.139Z,19.70
2022-12-04T19:49:44.564Z,19.80
2022-12-04T19:52:11.027Z,19.90
2022-12-04T19:54:37.481Z,19.80
2022-12-04T19:57:03.925Z,19.80
2022-12-04T19:59:35.837Z,19.80
2022-12-04T20:02:03.644Z,19.80
2022-12-04T20:04:30.165Z,20.00
2022-12-04T20:06:56.599Z,19.90
2022-12-04T20:09:23.053Z,19.30
2022-12-04T20:11:49.539Z,19.90
2022-12-04T20:14:15.987Z,19.70
2022-12-04T20:16:42.441Z,19.90
2022-12-04T20:19:08.938Z,19.90
2022-12-04T20:21:35.386Z,20.20
2022-12-04T20:24:01.815Z,19.90
2022-12-04T20:26:28.306Z,19.90
2022-12-04T20:28:54.819Z,19.90
2022-12-04T20:31:21.405Z,19.90
2022-12-04T20:33:47.957Z,19.90
2022-12-04T20:36:14.399Z,19.90
2022-12-04T20:38:40.833Z,19.90
2022-12-04T20:41:07.279Z,19.70
2022-12-04T20:43:33.727Z,19.90
2022-12-04T20:46:00.206Z,19.90
2022-12-04T20:48:26.685Z,19.90
2022-12-04T20:50:53.114Z,20.00
2022-12-04T20:53:19.586Z,20.00
2022-12-04T20:55:46.061Z,20.10
2022-12-04T20:58:12.540Z,20.00
2022-12-04T21:00:38.974Z,20.00
2022-12-04T21:03:05.524Z,20.00
2022-12-04T21:05:32.012Z,20.10
2022-12-04T21:07:58.521Z,19.90
2022-12-04T21:10:24.990Z,19.90
2022-12-04T21:12:51.455Z,19.90
2022-12-04T21:15:17.917Z,19.80
2022-12-04T21:17:44.379Z,19.80
2022-12-04T21:20:11.036Z,19.80
2022-12-04T21:22:37.584Z,19.80
2022-12-04T21:25:04.010Z,19.80
2022-12-04T21:27:30.607Z,19.70
2022-12-04T21:29:57.367Z,19.80
2022-12-04T21:32:24.065Z,19.80
2022-12-04T21:37:17.511Z,19.70
2022-12-04T21:39:43.981Z,19.70
2022-12-04T21:42:10.418Z,19.60
2022-12-04T21:44:36.905Z,19.70
2022-12-04T21:47:03.386Z,19.70
2022-12-04T21:49:29.872Z,19.70
2022-12-04T21:51:58.066Z,19.70
2022-12-04T21:54:25.080Z,19.70
2022-12-04T21:56:51.533Z,19.70
2022-12-04T21:59:18.024Z,19.70
2022-12-04T22:01:44.513Z,19.60
2022-12-04T22:04:11.035Z,19.60
2022-12-04T22:06:37.520Z,19.60
2022-12-04T22:09:04.002Z,19.70
2022-12-04T22:11:30.517Z,19.60
2022-12-04T22:13:56.946Z,19.60
2022-12-04T22:16:28.169Z,19.60
2022-12-04T22:18:56.619Z,19.60
2022-12-04T22:21:23.037Z,19.60
2022-12-04T22:23:49.522Z,19.60
2022-12-04T22:26:15.961Z,19.60
2022-12-04T22:28:42.429Z,19.60
2022-12-04T22:31:09.073Z,19.60
2022-12-04T22:33:35.573Z,19.60
2022-12-04T22:36:02.031Z,19.60
2022-12-04T22:38:28.474Z,19.50
2022-12-04T22:40:54.903Z,19.60
2022-12-04T22:43:21.365Z,19.70
2022-12-04T22:45:47.791Z,19.70
2022-12-04T22:48:14.292Z,19.70
2022-12-04T22:50:40.718Z,19.70
2022-12-04T22:53:07.143Z,19.40
2022-12-04T22:58:00.558Z,19.70
2022-12-04T23:00:26.979Z,19.70
2022-12-04T23:02:53.558Z,19.70
2022-12-04T23:05:20.087Z,19.60
2022-12-04T23:07:46.589Z,19.70
2022-12-04T23:10:13.037Z,19.70
2022-12-04T23:12:39.509Z,19.70
2022-12-04T23:15:06.007Z,19.70
2022-12-04T23:17:32.474Z,19.70
2022-12-04T23:19:59.056Z,19.60
2022-12-04T23:22:25.688Z,19.70
2022-12-04T23:24:52.187Z,19.60
2022-12-04T23:27:18.658Z,20.20
2022-12-04T23:29:53.219Z,19.70
2022-12-04T23:32:31.588Z,19.70
2022-12-04T23:34:58.044Z,19.70
2022-12-04T23:37:24.504Z,19.70
2022-12-04T23:42:17.972Z,19.70
2022-12-04T23:44:44.407Z,19.70
2022-12-04T23:47:10.898Z,19.70
2022-12-04T23:49:37.341Z,19.70
2022-12-04T23:52:03.822Z,19.70
2022-12-04T23:54:30.350Z,19.70
2022-12-04T23:56:56.787Z,19.70
2022-12-04T23:59:23.201Z,19.70
